Flugplatz Berlin-Schönefeld International

Bericht für EDDB

vom 02.07. um 11:20 UTC

Wind 5 kt aus 270°

Sichtweite 10 km oder mehr

gute Sicht, keine Wolken < 5000 ft, keine CB, keine Wettererscheinungen (CAVOK)

Temperatur 24.0°C

Taupunkt 6.0°C

Luftfeuchtigkeit 31%

Luftdruck 1024 hPa

keine wesentliche Wetteränderung innerhalb den nächsten 2 Stunden zu erwarten

EDDB 021120Z 27005KT 220V330 CAVOK 24/06 Q1024 NOSIG

Prognose für EDDB

vom 02.07. um 11:00 UTC

Zwischen 12:00 UTC und 15:00 UTC

Wind 6 kt aus 250°

Sichtweite 10 km oder mehr

keine signifikanten Wettererscheinungen

keine Wolken


Zwischen 15:00 und 18:00 UTC übergehend zu

Wind 5 kt aus 110°

Sichtweite 10 km oder mehr

keine signifikanten Wettererscheinungen

keine Wolken


Am 03.07. zwischen 06:00 und 09:00 UTC übergehend zu

Wind 8 kt aus 170°

Sichtweite 10 km oder mehr

keine signifikanten Wettererscheinungen

keine Wolken

TAF EDDB 021100Z 0212/0312 25006KT CAVOK BECMG 0215/0218 11005KT BECMG 0306/0309 17008KT
Impressum